sensor_id;sensor_type;location;lat;lon;timestamp;temperature;humidity
5136;DHT22;2586;48.710;9.202;2022-08-20T00:00:15;19.70;99.90
5136;DHT22;2586;48.710;9.202;2022-08-20T00:02:58;19.60;1.00
5136;DHT22;2586;48.710;9.202;2022-08-20T00:05:36;19.60;1.00
5136;DHT22;2586;48.710;9.202;2022-08-20T00:08:02;19.50;1.00
5136;DHT22;2586;48.710;9.202;2022-08-20T00:10:31;19.40;1.00
5136;DHT22;2586;48.710;9.202;2022-08-20T00:12:57;19.40;1.00
5136;DHT22;2586;48.710;9.202;2022-08-20T00:15:27;19.30;41.70
5136;DHT22;2586;48.710;9.202;2022-08-20T00:17:53;19.30;1.00
5136;DHT22;2586;48.710;9.202;2022-08-20T00:20:22;19.20;1.00
5136;DHT22;2586;48.710;9.202;2022-08-20T00:22:48;19.10;25.30
5136;DHT22;2586;48.710;9.202;2022-08-20T00:25:14;19.10;62.90
5136;DHT22;2586;48.710;9.202;2022-08-20T00:27:39;19.10;99.90
5136;DHT22;2586;48.710;9.202;2022-08-20T00:30:08;19.00;99.90
5136;DHT22;2586;48.710;9.202;2022-08-20T00:32:51;18.90;99.90
5136;DHT22;2586;48.710;9.202;2022-08-20T00:35:20;18.80;99.90
5136;DHT22;2586;48.710;9.202;2022-08-20T00:37:46;18.80;1.00
5136;DHT22;2586;48.710;9.202;2022-08-20T00:40:15;18.70;1.00
5136;DHT22;2586;48.710;9.202;2022-08-20T00:42:53;18.70;1.00
5136;DHT22;2586;48.710;9.202;2022-08-20T00:45:22;18.70;1.00
5136;DHT22;2586;48.710;9.202;2022-08-20T00:47:49;18.70;1.00
5136;DHT22;2586;48.710;9.202;2022-08-20T00:50:19;18.70;1.00
5136;DHT22;2586;48.710;9.202;2022-08-20T00:52:49;18.70;1.00
5136;DHT22;2586;48.710;9.202;2022-08-20T00:55:17;18.80;1.00
5136;DHT22;2586;48.710;9.202;2022-08-20T00:57:47;18.80;1.00
5136;DHT22;2586;48.710;9.202;2022-08-20T01:00:27;18.80;1.00
5136;DHT22;2586;48.710;9.202;2022-08-20T01:02:54;18.80;1.00
5136;DHT22;2586;48.710;9.202;2022-08-20T01:05:20;18.80;1.00
5136;DHT22;2586;48.710;9.202;2022-08-20T01:07:49;18.80;1.00
5136;DHT22;2586;48.710;9.202;2022-08-20T01:10:23;18.80;99.90
5136;DHT22;2586;48.710;9.202;2022-08-20T01:12:51;18.80;1.00
5136;DHT22;2586;48.710;9.202;2022-08-20T01:15:19;18.80;1.00
5136;DHT22;2586;48.710;9.202;2022-08-20T01:17:50;18.80;47.40
5136;DHT22;2586;48.710;9.202;2022-08-20T01:20:19;18.80;1.00
5136;DHT22;2586;48.710;9.202;2022-08-20T01:23:13;18.80;1.00
5136;DHT22;2586;48.710;9.202;2022-08-20T01:26:05;18.80;1.00
5136;DHT22;2586;48.710;9.202;2022-08-20T01:31:11;18.80;1.00
5136;DHT22;2586;48.710;9.202;2022-08-20T01:33:37;18.80;1.00
5136;DHT22;2586;48.710;9.202;2022-08-20T01:36:04;18.90;1.00
5136;DHT22;2586;48.710;9.202;2022-08-20T01:38:31;18.90;1.00
5136;DHT22;2586;48.710;9.202;2022-08-20T01:43:28;18.90;91.40
5136;DHT22;2586;48.710;9.202;2022-08-20T01:45:54;18.90;99.90
5136;DHT22;2586;48.710;9.202;2022-08-20T01:48:20;18.80;1.00
5136;DHT22;2586;48.710;9.202;2022-08-20T01:50:56;18.80;1.00
5136;DHT22;2586;48.710;9.202;2022-08-20T01:53:30;18.70;99.90
5136;DHT22;2586;48.710;9.202;2022-08-20T01:55:58;18.70;99.90
5136;DHT22;2586;48.710;9.202;2022-08-20T01:58:24;18.70;1.00
5136;DHT22;2586;48.710;9.202;2022-08-20T02:00:51;18.60;99.90
5136;DHT22;2586;48.710;9.202;2022-08-20T02:03:17;18.50;99.90
5136;DHT22;2586;48.710;9.202;2022-08-20T02:05:43;18.50;1.00
5136;DHT22;2586;48.710;9.202;2022-08-20T02:08:09;18.50;99.90
5136;DHT22;2586;48.710;9.202;2022-08-20T02:10:35;18.60;99.90
5136;DHT22;2586;48.710;9.202;2022-08-20T02:13:01;18.50;99.90
5136;DHT22;2586;48.710;9.202;2022-08-20T02:15:27;18.50;99.90
5136;DHT22;2586;48.710;9.202;2022-08-20T02:17:53;18.50;99.90
5136;DHT22;2586;48.710;9.202;2022-08-20T02:20:25;18.40;99.90
5136;DHT22;2586;48.710;9.202;2022-08-20T02:22:57;18.50;99.90
5136;DHT22;2586;48.710;9.202;2022-08-20T02:25:26;18.40;66.60
5136;DHT22;2586;48.710;9.202;2022-08-20T02:27:53;18.40;1.00
5136;DHT22;2586;48.710;9.202;2022-08-20T02:30:29;18.40;1.00
5136;DHT22;2586;48.710;9.202;2022-08-20T02:32:58;18.40;1.00
5136;DHT22;2586;48.710;9.202;2022-08-20T02:35:24;18.40;1.00
5136;DHT22;2586;48.710;9.202;2022-08-20T02:37:50;18.30;1.00
5136;DHT22;2586;48.710;9.202;2022-08-20T02:40:19;18.30;76.80
5136;DHT22;2586;48.710;9.202;2022-08-20T02:42:44;18.30;1.00
5136;DHT22;2586;48.710;9.202;2022-08-20T02:45:15;18.30;1.00
5136;DHT22;2586;48.710;9.202;2022-08-20T02:47:43;18.30;1.00
5136;DHT22;2586;48.710;9.202;2022-08-20T02:50:16;18.30;1.00
5136;DHT22;2586;48.710;9.202;2022-08-20T02:52:42;18.30;1.00
5136;DHT22;2586;48.710;9.202;2022-08-20T02:55:09;18.30;99.90
5136;DHT22;2586;48.710;9.202;2022-08-20T02:57:35;18.30;99.90
5136;DHT22;2586;48.710;9.202;2022-08-20T03:00:04;18.30;77.30
5136;DHT22;2586;48.710;9.202;2022-08-20T03:02:31;18.20;99.90
5136;DHT22;2586;48.710;9.202;2022-08-20T03:04:56;18.20;99.90
5136;DHT22;2586;48.710;9.202;2022-08-20T03:07:22;18.20;99.90
5136;DHT22;2586;48.710;9.202;2022-08-20T03:09:47;18.20;1.00
5136;DHT22;2586;48.710;9.202;2022-08-20T03:12:13;18.30;1.00
5136;DHT22;2586;48.710;9.202;2022-08-20T03:14:39;18.30;1.00
5136;DHT22;2586;48.710;9.202;2022-08-20T03:17:04;18.30;1.00
5136;DHT22;2586;48.710;9.202;2022-08-20T03:19:30;18.30;1.00
5136;DHT22;2586;48.710;9.202;2022-08-20T03:21:55;18.30;1.00
5136;DHT22;2586;48.710;9.202;2022-08-20T03:24:21;18.30;1.00
5136;DHT22;2586;48.710;9.202;2022-08-20T03:26:47;18.20;99.90
5136;DHT22;2586;48.710;9.202;2022-08-20T03:29:12;18.10;1.00
5136;DHT22;2586;48.710;9.202;2022-08-20T03:31:39;18.10;99.90
5136;DHT22;2586;48.710;9.202;2022-08-20T03:34:04;18.10;99.90
5136;DHT22;2586;48.710;9.202;2022-08-20T03:36:30;18.00;99.90
5136;DHT22;2586;48.710;9.202;2022-08-20T03:38:59;18.00;99.90
5136;DHT22;2586;48.710;9.202;2022-08-20T03:41:25;17.90;99.90
5136;DHT22;2586;48.710;9.202;2022-08-20T03:43:50;17.90;1.00
5136;DHT22;2586;48.710;9.202;2022-08-20T03:46:16;17.80;99.90
5136;DHT22;2586;48.710;9.202;2022-08-20T03:48:42;17.80;1.00
5136;DHT22;2586;48.710;9.202;2022-08-20T03:51:08;17.80;1.00
5136;DHT22;2586;48.710;9.202;2022-08-20T03:53:34;17.80;1.00
5136;DHT22;2586;48.710;9.202;2022-08-20T03:56:03;17.90;1.00
5136;DHT22;2586;48.710;9.202;2022-08-20T03:58:30;17.90;1.00
5136;DHT22;2586;48.710;9.202;2022-08-20T04:00:57;18.00;99.90
5136;DHT22;2586;48.710;9.202;2022-08-20T04:03:23;18.00;99.90
5136;DHT22;2586;48.710;9.202;2022-08-20T04:05:49;18.00;1.00
5136;DHT22;2586;48.710;9.202;2022-08-20T04:08:19;18.00;1.00
5136;DHT22;2586;48.710;9.202;2022-08-20T04:10:47;18.10;1.00
5136;DHT22;2586;48.710;9.202;2022-08-20T04:13:15;18.00;1.00
5136;DHT22;2586;48.710;9.202;2022-08-20T04:15:41;18.10;99.90
5136;DHT22;2586;48.710;9.202;2022-08-20T04:18:08;18.00;99.90
5136;DHT22;2586;48.710;9.202;2022-08-20T04:20:37;18.00;99.90
5136;DHT22;2586;48.710;9.202;2022-08-20T04:23:03;18.00;95.20
5136;DHT22;2586;48.710;9.202;2022-08-20T04:25:31;18.00;99.90
5136;DHT22;2586;48.710;9.202;2022-08-20T04:27:58;18.00;99.90
5136;DHT22;2586;48.710;9.202;2022-08-20T04:30:25;18.00;99.90
5136;DHT22;2586;48.710;9.202;2022-08-20T04:32:51;18.00;99.90
5136;DHT22;2586;48.710;9.202;2022-08-20T04:35:18;18.10;99.90
5136;DHT22;2586;48.710;9.202;2022-08-20T04:37:46;18.10;1.00
5136;DHT22;2586;48.710;9.202;2022-08-20T04:40:15;18.10;1.00
5136;DHT22;2586;48.710;9.202;2022-08-20T04:43:00;18.10;99.90
5136;DHT22;2586;48.710;9.202;2022-08-20T04:45:26;18.20;99.90
5136;DHT22;2586;48.710;9.202;2022-08-20T04:47:53;18.30;99.90
5136;DHT22;2586;48.710;9.202;2022-08-20T04:50:19;18.30;99.90
5136;DHT22;2586;48.710;9.202;2022-08-20T04:52:45;18.30;1.00
5136;DHT22;2586;48.710;9.202;2022-08-20T04:55:15;18.30;6.20
5136;DHT22;2586;48.710;9.202;2022-08-20T04:57:42;18.30;1.00
5136;DHT22;2586;48.710;9.202;2022-08-20T05:00:14;18.40;1.00
5136;DHT22;2586;48.710;9.202;2022-08-20T05:02:40;18.40;24.60
5136;DHT22;2586;48.710;9.202;2022-08-20T05:05:07;18.40;1.00
5136;DHT22;2586;48.710;9.202;2022-08-20T05:07:39;18.40;1.00
5136;DHT22;2586;48.710;9.202;2022-08-20T05:10:05;18.40;1.00
5136;DHT22;2586;48.710;9.202;2022-08-20T05:12:32;18.40;1.00
5136;DHT22;2586;48.710;9.202;2022-08-20T05:14:57;18.40;1.00
5136;DHT22;2586;48.710;9.202;2022-08-20T05:17:23;18.40;1.00
5136;DHT22;2586;48.710;9.202;2022-08-20T05:19:50;18.30;1.00
5136;DHT22;2586;48.710;9.202;2022-08-20T05:22:16;18.40;1.00
5136;DHT22;2586;48.710;9.202;2022-08-20T05:24:43;18.30;1.00
5136;DHT22;2586;48.710;9.202;2022-08-20T05:27:08;18.30;1.00
5136;DHT22;2586;48.710;9.202;2022-08-20T05:29:34;18.30;1.00
5136;DHT22;2586;48.710;9.202;2022-08-20T05:32:00;18.30;1.00
5136;DHT22;2586;48.710;9.202;2022-08-20T05:34:26;18.30;99.90
5136;DHT22;2586;48.710;9.202;2022-08-20T05:36:51;18.30;82.20
5136;DHT22;2586;48.710;9.202;2022-08-20T05:39:19;18.30;99.90
5136;DHT22;2586;48.710;9.202;2022-08-20T05:41:46;18.20;99.90
5136;DHT22;2586;48.710;9.202;2022-08-20T05:44:14;18.20;1.00
5136;DHT22;2586;48.710;9.202;2022-08-20T05:46:41;18.20;1.00
5136;DHT22;2586;48.710;9.202;2022-08-20T05:49:15;18.20;1.00
5136;DHT22;2586;48.710;9.202;2022-08-20T05:51:42;18.30;99.90
5136;DHT22;2586;48.710;9.202;2022-08-20T05:54:08;18.30;1.00
5136;DHT22;2586;48.710;9.202;2022-08-20T05:56:35;18.40;99.90
5136;DHT22;2586;48.710;9.202;2022-08-20T05:59:02;18.50;90.70
5136;DHT22;2586;48.710;9.202;2022-08-20T06:01:29;18.50;1.00
5136;DHT22;2586;48.710;9.202;2022-08-20T06:03:56;18.60;1.00
5136;DHT22;2586;48.710;9.202;2022-08-20T06:06:40;18.60;99.90
5136;DHT22;2586;48.710;9.202;2022-08-20T06:09:05;18.60;99.90
5136;DHT22;2586;48.710;9.202;2022-08-20T06:11:31;18.70;1.00
5136;DHT22;2586;48.710;9.202;2022-08-20T06:13:57;18.70;99.90
5136;DHT22;2586;48.710;9.202;2022-08-20T06:16:23;18.70;99.90
5136;DHT22;2586;48.710;9.202;2022-08-20T06:18:48;18.80;99.90
5136;DHT22;2586;48.710;9.202;2022-08-20T06:21:14;19.00;99.90
5136;DHT22;2586;48.710;9.202;2022-08-20T06:23:40;19.10;81.50
5136;DHT22;2586;48.710;9.202;2022-08-20T06:26:06;19.10;1.00
5136;DHT22;2586;48.710;9.202;2022-08-20T06:28:34;19.30;1.00
5136;DHT22;2586;48.710;9.202;2022-08-20T06:31:00;19.40;1.00
5136;DHT22;2586;48.710;9.202;2022-08-20T06:33:25;19.40;1.00
5136;DHT22;2586;48.710;9.202;2022-08-20T06:35:51;19.50;1.00
5136;DHT22;2586;48.710;9.202;2022-08-20T06:38:17;19.60;99.90
5136;DHT22;2586;48.710;9.202;2022-08-20T06:40:43;19.60;99.90
5136;DHT22;2586;48.710;9.202;2022-08-20T06:43:08;19.60;99.90
5136;DHT22;2586;48.710;9.202;2022-08-20T06:45:35;19.50;99.90
5136;DHT22;2586;48.710;9.202;2022-08-20T06:48:06;19.50;99.90
5136;DHT22;2586;48.710;9.202;2022-08-20T06:50:35;19.60;99.90
5136;DHT22;2586;48.710;9.202;2022-08-20T06:53:05;19.60;99.90
5136;DHT22;2586;48.710;9.202;2022-08-20T06:55:32;19.60;99.90
5136;DHT22;2586;48.710;9.202;2022-08-20T06:57:59;19.70;60.30
5136;DHT22;2586;48.710;9.202;2022-08-20T07:00:27;19.70;99.90
5136;DHT22;2586;48.710;9.202;2022-08-20T07:02:53;19.60;99.90
5136;DHT22;2586;48.710;9.202;2022-08-20T07:05:18;19.60;99.90
5136;DHT22;2586;48.710;9.202;2022-08-20T07:07:45;19.70;99.90
5136;DHT22;2586;48.710;9.202;2022-08-20T07:10:13;19.70;1.00
5136;DHT22;2586;48.710;9.202;2022-08-20T07:12:39;19.70;99.90
5136;DHT22;2586;48.710;9.202;2022-08-20T07:15:06;19.80;99.90
5136;DHT22;2586;48.710;9.202;2022-08-20T07:17:34;19.80;99.90
5136;DHT22;2586;48.710;9.202;2022-08-20T07:20:05;19.80;99.90
5136;DHT22;2586;48.710;9.202;2022-08-20T07:22:31;19.90;99.90
5136;DHT22;2586;48.710;9.202;2022-08-20T07:25:00;19.90;20.10
5136;DHT22;2586;48.710;9.202;2022-08-20T07:27:26;19.90;99.90
5136;DHT22;2586;48.710;9.202;2022-08-20T07:29:52;20.00;1.00
5136;DHT22;2586;48.710;9.202;2022-08-20T07:32:36;20.00;1.00
5136;DHT22;2586;48.710;9.202;2022-08-20T07:35:14;20.00;1.00
5136;DHT22;2586;48.710;9.202;2022-08-20T07:37:43;20.00;1.00
5136;DHT22;2586;48.710;9.202;2022-08-20T07:40:22;20.10;1.00
5136;DHT22;2586;48.710;9.202;2022-08-20T07:42:48;20.10;1.00
5136;DHT22;2586;48.710;9.202;2022-08-20T07:45:16;20.10;99.90
5136;DHT22;2586;48.710;9.202;2022-08-20T07:47:44;20.30;1.00
5136;DHT22;2586;48.710;9.202;2022-08-20T07:50:13;20.40;99.90
5136;DHT22;2586;48.710;9.202;2022-08-20T07:52:39;20.50;99.90
5136;DHT22;2586;48.710;9.202;2022-08-20T07:55:07;20.60;99.90
5136;DHT22;2586;48.710;9.202;2022-08-20T07:57:34;20.60;99.90
5136;DHT22;2586;48.710;9.202;2022-08-20T08:00:00;20.80;99.90
5136;DHT22;2586;48.710;9.202;2022-08-20T08:02:26;20.80;99.90
5136;DHT22;2586;48.710;9.202;2022-08-20T08:04:53;21.00;1.00
5136;DHT22;2586;48.710;9.202;2022-08-20T08:07:19;21.00;1.00
5136;DHT22;2586;48.710;9.202;2022-08-20T08:09:45;20.90;1.00
5136;DHT22;2586;48.710;9.202;2022-08-20T08:12:12;21.00;63.80
5136;DHT22;2586;48.710;9.202;2022-08-20T08:14:40;21.30;1.00
5136;DHT22;2586;48.710;9.202;2022-08-20T08:17:08;21.30;99.90
5136;DHT22;2586;48.710;9.202;2022-08-20T08:19:36;21.40;1.00
5136;DHT22;2586;48.710;9.202;2022-08-20T08:22:08;21.70;99.90
5136;DHT22;2586;48.710;9.202;2022-08-20T08:24:40;21.80;1.00
5136;DHT22;2586;48.710;9.202;2022-08-20T08:27:08;21.60;99.90
5136;DHT22;2586;48.710;9.202;2022-08-20T08:29:34;21.70;1.00
5136;DHT22;2586;48.710;9.202;2022-08-20T08:32:02;21.90;1.00
5136;DHT22;2586;48.710;9.202;2022-08-20T08:34:30;22.10;13.80
5136;DHT22;2586;48.710;9.202;2022-08-20T08:36:56;22.20;99.90
5136;DHT22;2586;48.710;9.202;2022-08-20T08:39:23;22.40;99.90
5136;DHT22;2586;48.710;9.202;2022-08-20T08:41:50;22.50;1.00
5136;DHT22;2586;48.710;9.202;2022-08-20T08:46:46;22.90;99.90
5136;DHT22;2586;48.710;9.202;2022-08-20T08:49:17;22.90;99.90
5136;DHT22;2586;48.710;9.202;2022-08-20T08:51:49;23.60;1.00
5136;DHT22;2586;48.710;9.202;2022-08-20T08:54:18;24.00;99.90
5136;DHT22;2586;48.710;9.202;2022-08-20T08:56:45;24.30;37.90
5136;DHT22;2586;48.710;9.202;2022-08-20T08:59:11;24.90;1.00
5136;DHT22;2586;48.710;9.202;2022-08-20T09:01:42;24.90;99.90
5136;DHT22;2586;48.710;9.202;2022-08-20T09:04:14;25.20;99.90
5136;DHT22;2586;48.710;9.202;2022-08-20T09:06:41;24.80;1.00
5136;DHT22;2586;48.710;9.202;2022-08-20T09:09:32;24.50;9.50
5136;DHT22;2586;48.710;9.202;2022-08-20T09:12:04;24.40;1.00
5136;DHT22;2586;48.710;9.202;2022-08-20T09:14:30;23.70;1.00
5136;DHT22;2586;48.710;9.202;2022-08-20T09:16:56;24.20;1.00
5136;DHT22;2586;48.710;9.202;2022-08-20T09:19:21;24.80;99.90
5136;DHT22;2586;48.710;9.202;2022-08-20T09:21:47;24.90;99.90
5136;DHT22;2586;48.710;9.202;2022-08-20T09:24:13;24.50;1.00
5136;DHT22;2586;48.710;9.202;2022-08-20T09:26:39;24.40;1.00
5136;DHT22;2586;48.710;9.202;2022-08-20T09:29:05;24.20;1.00
5136;DHT22;2586;48.710;9.202;2022-08-20T09:31:30;23.90;1.00
5136;DHT22;2586;48.710;9.202;2022-08-20T09:33:56;23.80;1.00
5136;DHT22;2586;48.710;9.202;2022-08-20T09:36:22;23.60;1.00
5136;DHT22;2586;48.710;9.202;2022-08-20T09:38:47;23.50;99.90
5136;DHT22;2586;48.710;9.202;2022-08-20T09:41:13;23.30;99.90
5136;DHT22;2586;48.710;9.202;2022-08-20T09:43:39;23.20;99.90
5136;DHT22;2586;48.710;9.202;2022-08-20T09:46:04;23.00;99.90
5136;DHT22;2586;48.710;9.202;2022-08-20T09:48:30;22.70;1.00
5136;DHT22;2586;48.710;9.202;2022-08-20T09:50:55;22.50;1.00
5136;DHT22;2586;48.710;9.202;2022-08-20T09:53:22;22.50;74.70
5136;DHT22;2586;48.710;9.202;2022-08-20T09:55:54;22.50;1.00
5136;DHT22;2586;48.710;9.202;2022-08-20T09:59:05;22.60;99.90
5136;DHT22;2586;48.710;9.202;2022-08-20T10:01:09;22.50;1.00
5136;DHT22;2586;48.710;9.202;2022-08-20T10:03:35;22.60;1.00
5136;DHT22;2586;48.710;9.202;2022-08-20T10:06:01;22.60;1.00
5136;DHT22;2586;48.710;9.202;2022-08-20T10:08:26;22.90;1.00
5136;DHT22;2586;48.710;9.202;2022-08-20T10:10:52;23.00;1.00
5136;DHT22;2586;48.710;9.202;2022-08-20T10:13:18;23.20;99.90
5136;DHT22;2586;48.710;9.202;2022-08-20T10:15:43;23.30;99.90
5136;DHT22;2586;48.710;9.202;2022-08-20T10:18:10;23.50;1.00
5136;DHT22;2586;48.710;9.202;2022-08-20T10:20:36;23.40;99.90
5136;DHT22;2586;48.710;9.202;2022-08-20T10:23:03;23.20;1.00
5136;DHT22;2586;48.710;9.202;2022-08-20T10:25:29;23.10;1.00
5136;DHT22;2586;48.710;9.202;2022-08-20T10:27:55;23.00;1.00
5136;DHT22;2586;48.710;9.202;2022-08-20T10:30:21;22.90;54.10
5136;DHT22;2586;48.710;9.202;2022-08-20T10:32:47;22.80;1.00
5136;DHT22;2586;48.710;9.202;2022-08-20T10:35:13;22.70;1.00
5136;DHT22;2586;48.710;9.202;2022-08-20T10:37:38;22.80;99.90
5136;DHT22;2586;48.710;9.202;2022-08-20T10:40:04;22.70;1.70
5136;DHT22;2586;48.710;9.202;2022-08-20T10:42:30;22.60;20.40
5136;DHT22;2586;48.710;9.202;2022-08-20T10:44:55;22.60;99.90
5136;DHT22;2586;48.710;9.202;2022-08-20T10:47:25;22.50;99.90
5136;DHT22;2586;48.710;9.202;2022-08-20T10:49:53;22.60;99.90
5136;DHT22;2586;48.710;9.202;2022-08-20T10:52:19;22.60;1.00
5136;DHT22;2586;48.710;9.202;2022-08-20T10:54:45;22.30;1.00
5136;DHT22;2586;48.710;9.202;2022-08-20T10:57:21;22.10;99.90
5136;DHT22;2586;48.710;9.202;2022-08-20T10:59:48;22.10;99.90
5136;DHT22;2586;48.710;9.202;2022-08-20T11:02:15;22.00;99.90
5136;DHT22;2586;48.710;9.202;2022-08-20T11:04:41;21.90;99.90
5136;DHT22;2586;48.710;9.202;2022-08-20T11:07:23;21.80;99.90
5136;DHT22;2586;48.710;9.202;2022-08-20T11:09:49;21.80;1.00
5136;DHT22;2586;48.710;9.202;2022-08-20T11:12:16;21.80;1.00
5136;DHT22;2586;48.710;9.202;2022-08-20T11:14:42;21.90;1.00
5136;DHT22;2586;48.710;9.202;2022-08-20T11:17:08;21.90;1.00
5136;DHT22;2586;48.710;9.202;2022-08-20T11:19:41;21.80;1.00
5136;DHT22;2586;48.710;9.202;2022-08-20T11:22:08;21.90;1.00
5136;DHT22;2586;48.710;9.202;2022-08-20T11:24:33;21.90;1.00
5136;DHT22;2586;48.710;9.202;2022-08-20T11:26:59;21.90;99.90
5136;DHT22;2586;48.710;9.202;2022-08-20T11:29:25;21.90;1.00
5136;DHT22;2586;48.710;9.202;2022-08-20T11:31:51;21.90;99.90
5136;DHT22;2586;48.710;9.202;2022-08-20T11:34:17;21.90;99.90
5136;DHT22;2586;48.710;9.202;2022-08-20T11:36:43;21.80;99.90
5136;DHT22;2586;48.710;9.202;2022-08-20T11:39:09;21.70;99.90
5136;DHT22;2586;48.710;9.202;2022-08-20T11:41:35;21.60;1.00
5136;DHT22;2586;48.710;9.202;2022-08-20T11:44:01;21.50;1.00
5136;DHT22;2586;48.710;9.202;2022-08-20T11:46:26;21.60;1.00
5136;DHT22;2586;48.710;9.202;2022-08-20T11:48:52;21.60;99.90
5136;DHT22;2586;48.710;9.202;2022-08-20T11:51:17;21.60;1.00
5136;DHT22;2586;48.710;9.202;2022-08-20T11:53:43;21.60;1.00
5136;DHT22;2586;48.710;9.202;2022-08-20T11:56:15;21.70;1.00
5136;DHT22;2586;48.710;9.202;2022-08-20T11:58:43;21.80;1.00
5136;DHT22;2586;48.710;9.202;2022-08-20T12:01:10;21.80;1.00
5136;DHT22;2586;48.710;9.202;2022-08-20T12:03:35;21.60;99.90
5136;DHT22;2586;48.710;9.202;2022-08-20T12:06:01;21.60;1.00
5136;DHT22;2586;48.710;9.202;2022-08-20T12:08:27;21.60;99.90
5136;DHT22;2586;48.710;9.202;2022-08-20T12:10:57;21.60;99.90
5136;DHT22;2586;48.710;9.202;2022-08-20T12:13:24;21.80;99.90
5136;DHT22;2586;48.710;9.202;2022-08-20T12:15:52;21.90;1.00
5136;DHT22;2586;48.710;9.202;2022-08-20T12:18:18;21.70;54.00
5136;DHT22;2586;48.710;9.202;2022-08-20T12:20:44;21.80;99.90
5136;DHT22;2586;48.710;9.202;2022-08-20T12:23:10;21.90;99.90
5136;DHT22;2586;48.710;9.202;2022-08-20T12:25:36;22.10;99.90
5136;DHT22;2586;48.710;9.202;2022-08-20T12:28:01;22.20;1.00
5136;DHT22;2586;48.710;9.202;2022-08-20T12:30:29;22.30;1.00
5136;DHT22;2586;48.710;9.202;2022-08-20T12:32:55;22.40;1.00
5136;DHT22;2586;48.710;9.202;2022-08-20T12:35:21;22.70;99.90
5136;DHT22;2586;48.710;9.202;2022-08-20T12:37:46;22.60;1.00
5136;DHT22;2586;48.710;9.202;2022-08-20T12:40:16;22.60;99.90
5136;DHT22;2586;48.710;9.202;2022-08-20T12:42:43;22.70;1.00
5136;DHT22;2586;48.710;9.202;2022-08-20T12:45:09;23.00;99.90
5136;DHT22;2586;48.710;9.202;2022-08-20T12:47:37;23.40;99.90
5136;DHT22;2586;48.710;9.202;2022-08-20T12:52:38;23.70;1.00
5136;DHT22;2586;48.710;9.202;2022-08-20T12:55:06;23.80;1.00
5136;DHT22;2586;48.710;9.202;2022-08-20T12:57:36;23.80;99.90
5136;DHT22;2586;48.710;9.202;2022-08-20T13:02:36;24.10;1.00
5136;DHT22;2586;48.710;9.202;2022-08-20T13:05:04;24.00;99.90
5136;DHT22;2586;48.710;9.202;2022-08-20T13:07:30;23.80;1.00
5136;DHT22;2586;48.710;9.202;2022-08-20T13:09:55;23.70;1.00
5136;DHT22;2586;48.710;9.202;2022-08-20T13:12:22;23.70;1.00
5136;DHT22;2586;48.710;9.202;2022-08-20T13:14:48;23.40;1.00
5136;DHT22;2586;48.710;9.202;2022-08-20T13:17:16;23.30;1.00
5136;DHT22;2586;48.710;9.202;2022-08-20T13:19:42;23.00;27.70
5136;DHT22;2586;48.710;9.202;2022-08-20T13:22:09;22.70;99.90
5136;DHT22;2586;48.710;9.202;2022-08-20T13:24:35;22.20;99.90
5136;DHT22;2586;48.710;9.202;2022-08-20T13:27:16;21.80;1.00
5136;DHT22;2586;48.710;9.202;2022-08-20T13:29:50;21.70;99.90
5136;DHT22;2586;48.710;9.202;2022-08-20T13:32:16;21.70;99.90
5136;DHT22;2586;48.710;9.202;2022-08-20T13:34:43;21.70;1.00
5136;DHT22;2586;48.710;9.202;2022-08-20T13:37:14;21.90;1.00
5136;DHT22;2586;48.710;9.202;2022-08-20T13:39:40;21.90;99.90
5136;DHT22;2586;48.710;9.202;2022-08-20T13:42:06;22.20;1.00
5136;DHT22;2586;48.710;9.202;2022-08-20T13:44:32;22.60;93.20
5136;DHT22;2586;48.710;9.202;2022-08-20T13:46:57;22.70;99.90
5136;DHT22;2586;48.710;9.202;2022-08-20T13:49:23;23.00;1.00
5136;DHT22;2586;48.710;9.202;2022-08-20T13:51:48;23.20;99.90
5136;DHT22;2586;48.710;9.202;2022-08-20T13:54:14;23.10;1.00
5136;DHT22;2586;48.710;9.202;2022-08-20T13:56:40;23.00;96.00
5136;DHT22;2586;48.710;9.202;2022-08-20T13:59:05;23.10;1.00
5136;DHT22;2586;48.710;9.202;2022-08-20T14:01:31;23.00;99.90
5136;DHT22;2586;48.710;9.202;2022-08-20T14:03:56;22.80;99.90
5136;DHT22;2586;48.710;9.202;2022-08-20T14:06:22;22.80;1.00
5136;DHT22;2586;48.710;9.202;2022-08-20T14:08:48;22.80;1.00
5136;DHT22;2586;48.710;9.202;2022-08-20T14:11:13;23.00;1.00
5136;DHT22;2586;48.710;9.202;2022-08-20T14:13:39;22.70;12.00
5136;DHT22;2586;48.710;9.202;2022-08-20T14:16:05;22.60;1.00
5136;DHT22;2586;48.710;9.202;2022-08-20T14:18:30;22.60;1.00
5136;DHT22;2586;48.710;9.202;2022-08-20T14:20:56;22.80;99.90
5136;DHT22;2586;48.710;9.202;2022-08-20T14:23:21;22.80;1.00
5136;DHT22;2586;48.710;9.202;2022-08-20T14:25:48;23.50;1.00
5136;DHT22;2586;48.710;9.202;2022-08-20T14:28:21;23.60;1.00
5136;DHT22;2586;48.710;9.202;2022-08-20T14:30:48;23.90;1.00
5136;DHT22;2586;48.710;9.202;2022-08-20T14:33:15;25.00;99.90
5136;DHT22;2586;48.710;9.202;2022-08-20T14:35:40;26.10;1.00
5136;DHT22;2586;48.710;9.202;2022-08-20T14:38:06;27.00;99.90
5136;DHT22;2586;48.710;9.202;2022-08-20T14:40:33;27.20;99.90
5136;DHT22;2586;48.710;9.202;2022-08-20T14:42:59;27.40;99.90
5136;DHT22;2586;48.710;9.202;2022-08-20T14:45:25;26.40;1.00
5136;DHT22;2586;48.710;9.202;2022-08-20T14:47:55;25.70;1.00
5136;DHT22;2586;48.710;9.202;2022-08-20T14:50:32;26.50;1.00
5136;DHT22;2586;48.710;9.202;2022-08-20T14:52:59;27.20;99.90
5136;DHT22;2586;48.710;9.202;2022-08-20T14:55:29;28.00;99.90
5136;DHT22;2586;48.710;9.202;2022-08-20T14:57:55;28.40;99.90
5136;DHT22;2586;48.710;9.202;2022-08-20T15:00:30;29.00;92.90
5136;DHT22;2586;48.710;9.202;2022-08-20T15:02:58;29.60;96.50
5136;DHT22;2586;48.710;9.202;2022-08-20T15:05:23;30.10;23.20
5136;DHT22;2586;48.710;9.202;2022-08-20T15:07:51;30.60;1.00
5136;DHT22;2586;48.710;9.202;2022-08-20T15:10:27;30.80;1.00
5136;DHT22;2586;48.710;9.202;2022-08-20T15:12:53;30.40;1.00
5136;DHT22;2586;48.710;9.202;2022-08-20T15:15:19;30.30;1.00
5136;DHT22;2586;48.710;9.202;2022-08-20T15:17:48;30.50;1.00
5136;DHT22;2586;48.710;9.202;2022-08-20T15:20:17;30.90;1.00
5136;DHT22;2586;48.710;9.202;2022-08-20T15:22:43;30.10;1.00
5136;DHT22;2586;48.710;9.202;2022-08-20T15:25:11;29.50;1.00
5136;DHT22;2586;48.710;9.202;2022-08-20T15:27:38;29.80;1.00
5136;DHT22;2586;48.710;9.202;2022-08-20T15:30:06;29.80;1.00
5136;DHT22;2586;48.710;9.202;2022-08-20T15:32:32;30.50;1.00
5136;DHT22;2586;48.710;9.202;2022-08-20T15:34:58;30.60;1.00
5136;DHT22;2586;48.710;9.202;2022-08-20T15:37:24;30.90;1.00
5136;DHT22;2586;48.710;9.202;2022-08-20T15:39:51;29.70;1.00
5136;DHT22;2586;48.710;9.202;2022-08-20T15:42:18;29.80;1.00
5136;DHT22;2586;48.710;9.202;2022-08-20T15:44:45;30.20;1.00
5136;DHT22;2586;48.710;9.202;2022-08-20T15:49:36;30.70;1.00
5136;DHT22;2586;48.710;9.202;2022-08-20T15:52:02;30.90;1.00
5136;DHT22;2586;48.710;9.202;2022-08-20T15:54:28;31.20;1.00
5136;DHT22;2586;48.710;9.202;2022-08-20T16:00:11;31.00;1.00
5136;DHT22;2586;48.710;9.202;2022-08-20T16:08:30;28.80;1.00
5136;DHT22;2586;48.710;9.202;2022-08-20T16:11:02;28.30;1.00
5136;DHT22;2586;48.710;9.202;2022-08-20T16:16:30;29.70;1.00
5136;DHT22;2586;48.710;9.202;2022-08-20T16:18:57;30.40;1.00
5136;DHT22;2586;48.710;9.202;2022-08-20T16:21:35;30.60;1.00
5136;DHT22;2586;48.710;9.202;2022-08-20T16:24:04;30.70;1.00
5136;DHT22;2586;48.710;9.202;2022-08-20T16:32:09;30.70;1.00
5136;DHT22;2586;48.710;9.202;2022-08-20T16:34:43;29.80;1.00
5136;DHT22;2586;48.710;9.202;2022-08-20T16:37:46;28.90;1.00
5136;DHT22;2586;48.710;9.202;2022-08-20T16:40:43;28.30;1.00
5136;DHT22;2586;48.710;9.202;2022-08-20T16:43:15;27.70;1.00
5136;DHT22;2586;48.710;9.202;2022-08-20T16:45:46;27.40;1.00